Terminal Aerodrome Forecast
Issued by NWS Tuscon, AZ

Home | Current Version | Previous Version | Text Only | Print | Product List | Glossary On
Versions: 1 2 3 4 5 6 7 8 9 10 11 12 13 14 15 16 17
584
FTUS45 KTWC 260520
TAFDUG
TAF
KDUG 260520Z 2606/2706 28011KT P6SM BKN250
     FM260900 34008KT P6SM SCT250
     FM261200 VRB03KT P6SM FEW250
     FM261800 27013G20KT P6SM FEW250
     FM270300 33007KT P6SM SKC=

USA.gov is the U.S. government's official web portal to all federal, state and local government web resources and services.